CST,Max TemperatureF,Mean TemperatureF,Min TemperatureF,Max Dew PointF,MeanDew PointF,Min DewpointF,Max Humidity, Mean Humidity, Min Humidity, Max Sea Level PressureIn, Mean Sea Level PressureIn, Min Sea Level PressureIn, Max VisibilityMiles, Mean VisibilityMiles, Min VisibilityMiles, Max Wind SpeedMPH, Mean Wind SpeedMPH, Max Gust SpeedMPH,PrecipitationIn, CloudCover, Events, WindDirDegrees
2012-12-1,62,47,32,52,45,30,100,83,68,30.12,30.02,29.91,10,7,1,21,10,29,0.00,2,,166
2012-12-2,66,56,46,57,53,45,100,86,68,30.05,29.97,29.89,10,7,0,21,11,26,0.01,5,Fog-Rain,215
2012-12-3,73,63,53,63,58,52,100,83,57,30.03,29.91,29.79,10,7,0,31,14,39,0.00,4,Fog,192
2012-12-4,59,49,37,54,40,32,94,71,44,30.29,30.12,29.93,10,10,4,14,8,18,0.03,2,Rain,309
2012-12-5,44,36,28,32,29,23,93,75,57,30.43,30.33,30.19,10,10,10,12,8,,0.00,0,,75
2012-12-6,50,41,32,43,36,30,93,83,66,30.19,30.04,29.93,10,10,7,13,8,,0.00,1,,164
2012-12-7,48,45,42,46,44,41,100,95,81,29.94,29.90,29.86,10,4,1,13,4,17,0.00,6,Rain,58
2012-12-8,44,40,37,41,38,36,100,90,76,30.07,29.97,29.83,10,8,2,16,9,16,0.00,7,Rain,25
2012-12-9,46,42,37,46,39,36,100,95,87,30.04,29.84,29.74,10,6,1,25,15,30,0.08,8,Rain,157
2012-12-10,35,32,28,32,27,25,93,91,86,29.98,29.86,29.78,10,8,4,22,17,29,0.00,8,Snow,280
2012-12-11,37,29,21,27,23,19,100,79,56,30.18,30.06,29.98,10,10,10,20,10,25,0.00,1,,222
2012-12-12,46,35,24,30,26,21,86,74,46,30.31,30.26,30.18,10,10,10,17,9,22,0.00,0,,178
2012-12-13,48,39,30,32,28,27,87,69,43,30.29,30.22,30.13,10,10,10,24,13,31,0.00,0,,190
2012-12-14,51,38,26,37,32,25,93,76,53,30.20,30.13,30.01,10,10,10,12,6,,0.00,0,,162
2012-12-15,53,47,41,52,44,34,100,88,66,30.01,29.73,29.58,10,8,2,24,14,32,0.12,8,Rain,172
2012-12-16,51,45,37,46,41,36,100,88,76,29.76,29.68,29.62,10,8,2,18,11,22,0.00,8,Rain,265
2012-12-17,39,37,35,36,35,34,93,88,81,29.76,29.72,29.66,10,7,5,9,4,,0.00,8,,320
2012-12-18,48,40,33,43,35,30,93,85,71,29.85,29.71,29.57,10,6,2,30,11,36,0.00,5,,220
2012-12-19,42,38,35,39,35,32,93,90,87,30.06,29.94,29.68,10,5,2,25,10,30,0.30,6,Rain-Thunderstorm,69
2012-12-20,53,42,30,52,40,27,100,93,76,29.65,29.31,29.05,10,6,1,44,22,55,0.37,8,Rain-Snow,196
2012-12-21,28,22,15,27,18,12,93,81,69,30.22,29.99,29.63,10,10,10,38,28,46,0.00,2,,296
2012-12-22,33,24,14,27,19,10,93,83,69,30.25,30.13,29.93,10,10,10,12,6,,0.00,0,,199
2012-12-23,37,27,17,32,26,18,100,91,80,30.01,29.96,29.91,10,7,5,10,3,,0.00,1,,47
2012-12-24,33,30,26,30,28,25,100,90,86,30.09,29.93,29.82,10,8,4,16,10,20,0.00,5,,339
2012-12-25,33,30,26,28,25,21,93,85,75,30.30,30.21,30.10,10,10,5,15,9,,0.00,7,,7
2012-12-26,35,32,28,27,26,25,86,78,65,30.13,30.03,29.94,10,10,10,28,17,37,0.00,7,,10
2012-12-27,32,29,26,28,26,23,93,84,80,30.18,30.14,30.09,10,10,10,10,6,,0.00,8,,357
2012-12-28,33,32,30,32,29,25,100,90,80,30.12,29.99,29.87,10,6,1,13,7,,0.00,7,Snow,147
2012-12-29,32,24,17,32,24,14,100,88,74,30.27,30.04,29.86,10,7,1,24,12,29,0.00,7,Snow,297
2012-12-30,37,26,15,28,24,12,93,76,60,30.36,30.25,30.12,10,9,5,21,9,25,0.00,0,,215
2012-12-31,37,30,23,32,25,19,100,81,65,30.14,30.08,30.05,10,8,0,21,14,28,0.00,3,Rain-Snow,263